Time;durP1;ratioP1;P1;durP2;ratioP2;P2;SDS_P1;SDS_P2;PMS_P1;PMS_P2;Temp;Humidity;BMP_temperature;BMP_pressure;BME280_temperature;BME280_humidity;BME280_pressure;Samples;Min_cycle;Max_cycle;Signal;HPM_P1;HPM_P2
2021/09/19 00:00:48;;;;;;;11.93;11.02;;;11.70;86.50;;;;;;5010013;29;20130;-73
2021/09/19 00:03:20;;;;;;;12.52;11.38;;;11.70;86.30;;;;;;4995709;29;20065;-72
2021/09/19 00:05:52;;;;;;;11.82;10.82;;;11.70;86.60;;;;;;5010570;29;20046;-72
2021/09/19 00:08:24;;;;;;;11.90;10.80;;;11.70;86.20;;;;;;5010820;29;20054;-73
2021/09/19 00:10:56;;;;;;;11.60;10.70;;;11.70;86.40;;;;;;5010801;29;20132;-74
2021/09/19 00:13:28;;;;;;;11.50;10.60;;;11.70;85.20;;;;;;5010873;29;20173;-74
2021/09/19 00:16:00;;;;;;;11.65;10.75;;;11.70;85.10;;;;;;4993399;29;20609;-73
2021/09/19 00:18:33;;;;;;;11.55;10.65;;;11.70;84.80;;;;;;5012812;29;20050;-73
2021/09/19 00:21:04;;;;;;;11.75;10.85;;;11.60;84.60;;;;;;5007527;29;20576;-73
2021/09/19 00:23:36;;;;;;;11.70;10.77;;;11.60;84.40;;;;;;5010527;29;20244;-74
2021/09/19 00:26:08;;;;;;;11.10;10.20;;;11.60;85.10;;;;;;5007978;29;20057;-73
2021/09/19 00:28:41;;;;;;;11.98;10.77;;;11.60;85.10;;;;;;5008819;29;20484;-74
2021/09/19 00:31:13;;;;;;;11.50;10.60;;;11.50;85.00;;;;;;5008599;29;20049;-73
2021/09/19 00:33:45;;;;;;;12.20;11.02;;;11.50;84.80;;;;;;5011472;29;20133;-74
2021/09/19 00:36:17;;;;;;;12.05;11.15;;;11.50;84.90;;;;;;4993804;29;20156;-73
2021/09/19 00:38:49;;;;;;;11.45;10.38;;;11.50;85.00;;;;;;5010213;29;20423;-71
2021/09/19 00:41:21;;;;;;;12.15;11.05;;;11.50;85.50;;;;;;5010988;29;20073;-71
2021/09/19 00:43:53;;;;;;;11.55;10.65;;;11.40;85.80;;;;;;5012664;29;20178;-71
2021/09/19 00:46:25;;;;;;;11.68;10.77;;;11.40;85.70;;;;;;5011035;29;20065;-72
2021/09/19 00:48:57;;;;;;;11.35;10.45;;;11.40;85.40;;;;;;5012373;29;20693;-72
2021/09/19 00:51:30;;;;;;;11.38;10.48;;;11.40;85.20;;;;;;5013658;29;20721;-72
2021/09/19 00:54:05;;;;;;;11.60;10.68;;;11.40;85.10;;;;;;5012549;29;20165;-74
2021/09/19 00:56:39;;;;;;;11.23;10.10;;;11.40;85.60;;;;;;5012235;29;20402;-72
2021/09/19 00:59:11;;;;;;;10.90;9.88;;;11.30;86.10;;;;;;5014515;29;20132;-72
2021/09/19 01:01:43;;;;;;;11.70;10.60;;;11.20;86.00;;;;;;5012367;29;20183;-72
2021/09/19 01:04:16;;;;;;;11.38;10.48;;;11.20;86.10;;;;;;5011554;29;20046;-72
2021/09/19 01:06:48;;;;;;;11.73;10.73;;;11.20;86.00;;;;;;5012478;29;20401;-72
2021/09/19 01:09:21;;;;;;;11.82;10.70;;;11.30;86.20;;;;;;5011630;29;20129;-73
2021/09/19 01:11:53;;;;;;;11.50;10.50;;;11.20;85.80;;;;;;5011140;29;20168;-73
2021/09/19 01:14:28;;;;;;;11.60;10.60;;;11.20;85.80;;;;;;5012026;29;20081;-73
2021/09/19 01:17:00;;;;;;;12.43;11.27;;;11.20;85.40;;;;;;5010536;29;20053;-74
2021/09/19 01:19:35;;;;;;;11.57;10.68;;;11.20;85.50;;;;;;5011546;29;20098;-73
2021/09/19 01:22:08;;;;;;;12.55;11.27;;;11.10;85.50;;;;;;5009144;29;20245;-73
2021/09/19 01:24:41;;;;;;;12.35;11.18;;;11.10;85.80;;;;;;5011714;29;20738;-74
2021/09/19 01:27:13;;;;;;;12.20;11.15;;;11.10;85.80;;;;;;5009706;29;20053;-74
2021/09/19 01:29:45;;;;;;;12.10;11.10;;;11.10;85.40;;;;;;5011340;29;20058;-73
2021/09/19 01:32:21;;;;;;;12.18;11.07;;;11.00;85.10;;;;;;5009218;29;20168;-74
2021/09/19 01:34:53;;;;;;;13.07;11.85;;;11.00;85.60;;;;;;5002004;29;20057;-74
2021/09/19 01:37:25;;;;;;;11.70;10.70;;;11.00;86.40;;;;;;5011269;29;20532;-74
2021/09/19 01:39:58;;;;;;;11.70;10.80;;;10.90;86.60;;;;;;5012686;29;20145;-74
2021/09/19 01:42:30;;;;;;;12.57;11.57;;;10.90;86.30;;;;;;4996065;29;20060;-74
2021/09/19 01:45:03;;;;;;;12.43;11.32;;;10.90;86.30;;;;;;5010378;29;20968;-74
2021/09/19 01:47:35;;;;;;;12.77;11.50;;;10.90;86.20;;;;;;5009548;29;20045;-74
2021/09/19 01:50:09;;;;;;;11.50;10.50;;;10.90;85.40;;;;;;5011279;29;20926;-74
2021/09/19 01:52:41;;;;;;;12.02;11.02;;;10.90;85.00;;;;;;5011726;29;20448;-74
2021/09/19 01:55:12;;;;;;;12.10;11.10;;;10.90;84.70;;;;;;5012784;29;20619;-73
2021/09/19 01:57:45;;;;;;;12.57;11.48;;;10.90;84.90;;;;;;5009831;29;20037;-73
2021/09/19 02:00:17;;;;;;;12.10;11.10;;;10.90;85.20;;;;;;5010685;29;20069;-74
2021/09/19 02:02:49;;;;;;;12.35;11.15;;;10.90;85.10;;;;;;5011853;29;20405;-73
2021/09/19 02:05:22;;;;;;;12.25;11.10;;;10.80;85.00;;;;;;5008666;29;20054;-74
2021/09/19 02:07:54;;;;;;;12.38;11.38;;;10.80;85.20;;;;;;5009478;29;20049;-74
2021/09/19 02:10:25;;;;;;;12.57;11.38;;;10.80;85.10;;;;;;5010313;29;20145;-74
2021/09/19 02:12:57;;;;;;;11.75;10.85;;;10.70;84.80;;;;;;5016699;29;20137;-74
2021/09/19 02:15:29;;;;;;;12.48;11.20;;;10.80;84.50;;;;;;5009842;29;20042;-72
2021/09/19 02:18:01;;;;;;;11.88;10.88;;;10.80;84.60;;;;;;5009531;29;20142;-73
2021/09/19 02:20:33;;;;;;;11.50;10.43;;;10.70;84.80;;;;;;5010141;29;20438;-74
2021/09/19 02:23:05;;;;;;;11.75;10.75;;;10.70;84.60;;;;;;5010224;29;20587;-75
2021/09/19 02:25:37;;;;;;;11.20;10.25;;;10.70;84.60;;;;;;5008423;29;20137;-75
2021/09/19 02:28:09;;;;;;;11.90;10.88;;;10.70;85.00;;;;;;5008566;29;20583;-74
2021/09/19 02:30:41;;;;;;;12.48;11.18;;;10.70;85.40;;;;;;5009469;29;20042;-75
2021/09/19 02:33:13;;;;;;;12.02;11.02;;;10.60;84.70;;;;;;5010561;29;20130;-74
2021/09/19 02:35:45;;;;;;;11.75;10.75;;;10.60;84.50;;;;;;5009677;29;20475;-74
2021/09/19 02:38:17;;;;;;;11.35;10.45;;;10.60;84.90;;;;;;5011767;29;20583;-74
2021/09/19 02:40:51;;;;;;;12.38;11.38;;;10.50;85.40;;;;;;5011877;29;20164;-75
2021/09/19 02:43:24;;;;;;;11.85;10.88;;;10.50;86.00;;;;;;5011016;29;20148;-75
2021/09/19 02:45:56;;;;;;;11.90;10.90;;;10.50;85.90;;;;;;5008949;29;20594;-75
2021/09/19 02:48:28;;;;;;;11.95;11.05;;;10.50;85.80;;;;;;5010957;29;20065;-73
2021/09/19 02:51:00;;;;;;;12.25;11.25;;;10.50;85.90;;;;;;5011004;29;20101;-74
2021/09/19 02:53:32;;;;;;;12.07;11.18;;;10.50;86.00;;;;;;5010767;29;20051;-74
2021/09/19 02:56:04;;;;;;;11.30;10.40;;;10.50;85.60;;;;;;5009277;29;20042;-74
2021/09/19 02:58:37;;;;;;;11.98;11.07;;;10.50;85.00;;;;;;5010668;29;20509;-74
2021/09/19 03:01:09;;;;;;;11.82;10.85;;;10.50;85.20;;;;;;5008794;29;20109;-74
2021/09/19 03:03:41;;;;;;;38.47;11.40;;;10.40;84.90;;;;;;5010510;29;20102;-75
2021/09/19 03:06:13;;;;;;;12.38;11.07;;;10.50;85.50;;;;;;5008426;29;20075;-74
2021/09/19 03:08:45;;;;;;;11.07;10.10;;;10.40;85.40;;;;;;5011660;29;20124;-75
2021/09/19 03:11:17;;;;;;;11.32;10.30;;;10.30;85.30;;;;;;5009682;29;20045;-75
2021/09/19 03:13:49;;;;;;;11.00;10.10;;;10.20;85.20;;;;;;5011193;29;20298;-75
2021/09/19 03:16:21;;;;;;;10.88;9.95;;;10.20;84.80;;;;;;5008794;29;20133;-75
2021/09/19 03:18:53;;;;;;;11.02;10.02;;;10.20;84.80;;;;;;5010050;29;20568;-74
2021/09/19 03:21:25;;;;;;;10.98;10.07;;;10.20;85.00;;;;;;5010284;29;20523;-75
2021/09/19 03:23:57;;;;;;;11.32;10.32;;;10.20;84.90;;;;;;5009143;29;20073;-75
2021/09/19 03:26:29;;;;;;;10.80;9.90;;;10.20;84.70;;;;;;5009589;29;20141;-75
2021/09/19 03:29:01;;;;;;;11.68;10.68;;;10.20;85.00;;;;;;5010358;29;20128;-75
2021/09/19 03:31:33;;;;;;;10.98;10.07;;;10.10;85.00;;;;;;5010586;29;20140;-75
2021/09/19 03:34:05;;;;;;;11.48;10.57;;;10.10;85.10;;;;;;5009581;29;20050;-76
2021/09/19 03:36:37;;;;;;;11.32;10.32;;;10.10;85.00;;;;;;5009289;29;20131;-76
2021/09/19 03:39:09;;;;;;;11.63;10.65;;;10.10;85.30;;;;;;5011221;29;20058;-76
2021/09/19 03:41:41;;;;;;;10.88;9.98;;;10.10;85.30;;;;;;5009329;29;20572;-75
2021/09/19 03:44:13;;;;;;;11.35;10.45;;;10.10;84.80;;;;;;5010909;29;20126;-75
2021/09/19 03:46:45;;;;;;;11.48;10.50;;;10.10;84.60;;;;;;5010893;29;20053;-75
2021/09/19 03:49:16;;;;;;;11.13;10.32;;;10.10;84.60;;;;;;5009443;29;20054;-75
2021/09/19 03:51:48;;;;;;;11.57;10.63;;;10.10;84.90;;;;;;5010067;29;20085;-75
2021/09/19 03:54:20;;;;;;;11.32;10.43;;;10.00;85.00;;;;;;5010171;29;20045;-74
2021/09/19 03:56:52;;;;;;;11.32;10.43;;;9.90;85.50;;;;;;5007293;29;20160;-74
2021/09/19 03:59:25;;;;;;;11.50;10.50;;;9.90;85.80;;;;;;5010055;29;20156;-75
2021/09/19 04:01:57;;;;;;;11.77;10.77;;;9.90;85.40;;;;;;4998787;29;20056;-75
2021/09/19 04:04:30;;;;;;;11.45;10.45;;;9.90;85.40;;;;;;5010285;29;20133;-75
2021/09/19 04:07:02;;;;;;;11.27;10.38;;;9.90;85.20;;;;;;5008720;29;20532;-75
2021/09/19 04:09:34;;;;;;;11.25;10.25;;;9.80;85.40;;;;;;5009111;29;20533;-75
2021/09/19 04:12:06;;;;;;;11.77;10.77;;;9.80;85.00;;;;;;5007348;29;20172;-75
2021/09/19 04:14:38;;;;;;;11.20;10.30;;;9.90;84.80;;;;;;5009694;29;20530;-75
2021/09/19 04:17:10;;;;;;;11.90;10.77;;;9.80;84.90;;;;;;4995586;29;20086;-75
2021/09/19 04:19:42;;;;;;;11.27;10.38;;;9.80;84.60;;;;;;5010677;29;20456;-74
2021/09/19 04:22:14;;;;;;;11.10;10.20;;;9.80;84.70;;;;;;5012141;29;20073;-74
2021/09/19 04:24:45;;;;;;;11.48;10.43;;;9.70;84.80;;;;;;5012291;29;20073;-75
2021/09/19 04:27:17;;;;;;;10.88;9.98;;;9.70;85.90;;;;;;5009329;29;20623;-74
2021/09/19 04:29:49;;;;;;;10.82;9.93;;;9.70;84.80;;;;;;4997542;29;20049;-75
2021/09/19 04:32:22;;;;;;;11.10;10.20;;;9.70;84.80;;;;;;5012159;29;20546;-75
2021/09/19 04:34:54;;;;;;;11.88;10.88;;;9.70;84.50;;;;;;5011900;29;20054;-76
2021/09/19 04:37:27;;;;;;;12.52;11.52;;;9.70;84.70;;;;;;4994799;29;20082;-75
2021/09/19 04:39:59;;;;;;;12.52;11.35;;;9.60;85.00;;;;;;5011105;29;20763;-75
2021/09/19 04:42:31;;;;;;;14.18;12.98;;;9.70;84.70;;;;;;5013959;29;20535;-75
2021/09/19 04:45:05;;;;;;;12.35;11.35;;;9.60;84.50;;;;;;5013945;29;20058;-75
2021/09/19 04:47:37;;;;;;;12.32;11.32;;;9.60;85.00;;;;;;5011381;29;20153;-75
2021/09/19 04:50:10;;;;;;;12.20;11.20;;;9.60;84.60;;;;;;4995742;29;20049;-75
2021/09/19 04:52:42;;;;;;;13.23;12.05;;;9.60;84.80;;;;;;5012061;29;20038;-75
2021/09/19 04:55:14;;;;;;;12.10;11.10;;;9.60;84.70;;;;;;4998384;29;20045;-76
2021/09/19 04:57:45;;;;;;;11.20;10.27;;;9.60;85.10;;;;;;5011581;29;20411;-75
2021/09/19 05:00:17;;;;;;;11.30;10.40;;;9.60;86.10;;;;;;5014779;29;20121;-75
2021/09/19 05:02:50;;;;;;;11.30;10.30;;;9.60;87.70;;;;;;5012905;29;20046;-74
2021/09/19 05:05:22;;;;;;;11.35;10.38;;;9.50;87.50;;;;;;5010650;29;20050;-74
2021/09/19 05:07:54;;;;;;;10.98;10.07;;;9.60;88.20;;;;;;5016137;29;20210;-74
2021/09/19 05:10:26;;;;;;;13.98;10.30;;;9.60;88.20;;;;;;5013550;29;20049;-75
2021/09/19 05:12:58;;;;;;;11.25;10.35;;;9.60;87.90;;;;;;5013174;29;20113;-74
2021/09/19 05:15:30;;;;;;;10.88;10.00;;;9.60;88.00;;;;;;5011745;29;20053;-74
2021/09/19 05:18:02;;;;;;;10.63;9.73;;;9.70;87.50;;;;;;5010611;29;20102;-74
2021/09/19 05:20:34;;;;;;;10.55;9.65;;;9.70;87.00;;;;;;5012318;29;20137;-75
2021/09/19 05:23:06;;;;;;;10.63;9.77;;;9.70;86.50;;;;;;5012164;29;20053;-75
2021/09/19 05:25:39;;;;;;;10.65;9.75;;;9.70;86.30;;;;;;5012561;29;20046;-75
2021/09/19 05:28:11;;;;;;;11.15;10.23;;;9.70;86.10;;;;;;5010396;29;20140;-76
2021/09/19 05:30:42;;;;;;;10.55;9.65;;;9.70;85.70;;;;;;4995202;29;20152;-74
2021/09/19 05:33:14;;;;;;;11.38;10.30;;;9.70;85.80;;;;;;5012873;29;20050;-74
2021/09/19 05:35:47;;;;;;;10.98;10.07;;;9.70;85.80;;;;;;5011657;29;20045;-76
2021/09/19 05:38:19;;;;;;;11.27;10.38;;;9.80;85.50;;;;;;5012735;29;20056;-76
2021/09/19 05:40:51;;;;;;;10.88;9.98;;;9.80;85.90;;;;;;5000912;29;20265;-75
2021/09/19 05:43:23;;;;;;;11.18;10.27;;;9.80;86.10;;;;;;5011325;29;20053;-75
2021/09/19 05:45:55;;;;;;;11.13;10.23;;;9.80;86.30;;;;;;4994605;29;20139;-74
2021/09/19 05:48:30;;;;;;;11.35;10.35;;;9.80;86.30;;;;;;5013412;29;20065;-74
2021/09/19 05:51:03;;;;;;;11.32;10.43;;;9.90;86.10;;;;;;5013396;29;20398;-75
2021/09/19 05:53:35;;;;;;;11.18;10.27;;;9.90;86.20;;;;;;5011606;29;20045;-75
2021/09/19 05:56:06;;;;;;;11.07;10.18;;;10.00;86.30;;;;;;5009840;29;20156;-75
2021/09/19 05:58:38;;;;;;;10.15;9.35;;;10.10;86.40;;;;;;4980436;29;20475;-74
2021/09/19 06:01:10;;;;;;;10.77;9.88;;;10.10;86.90;;;;;;5011206;29;20219;-75
2021/09/19 06:03:43;;;;;;;10.90;10.00;;;10.10;86.90;;;;;;5014086;29;20132;-74
2021/09/19 06:06:15;;;;;;;11.05;10.15;;;10.10;87.90;;;;;;5010071;29;20094;-75
2021/09/19 06:08:47;;;;;;;11.20;10.27;;;10.20;87.10;;;;;;5001871;29;20057;-75
2021/09/19 06:11:18;;;;;;;10.98;9.98;;;10.20;86.80;;;;;;5009845;29;20049;-75
2021/09/19 06:13:50;;;;;;;11.35;10.25;;;10.30;86.90;;;;;;5012614;29;20060;-75
2021/09/19 06:16:22;;;;;;;11.15;10.25;;;10.40;86.60;;;;;;5009544;29;20106;-73
2021/09/19 06:18:54;;;;;;;11.70;10.57;;;10.50;86.60;;;;;;5011249;29;20116;-75
2021/09/19 06:21:26;;;;;;;10.93;10.00;;;10.50;87.10;;;;;;5010951;29;20129;-75
2021/09/19 06:23:58;;;;;;;10.98;10.07;;;10.50;87.10;;;;;;5010154;29;20098;-74
2021/09/19 06:26:30;;;;;;;11.27;10.38;;;10.60;86.40;;;;;;5009938;29;20046;-73
2021/09/19 06:29:02;;;;;;;11.88;10.60;;;10.60;86.40;;;;;;5011250;29;20128;-75
2021/09/19 06:31:34;;;;;;;11.35;10.45;;;10.70;86.80;;;;;;5010186;29;20136;-74
2021/09/19 06:34:06;;;;;;;10.63;9.82;;;10.80;87.00;;;;;;5010211;29;20050;-74
2021/09/19 06:36:38;;;;;;;10.50;9.70;;;10.80;87.70;;;;;;5009403;29;20139;-75
2021/09/19 06:39:10;;;;;;;11.35;10.45;;;11.00;87.20;;;;;;5012869;29;20137;-75
2021/09/19 06:41:42;;;;;;;11.00;10.00;;;11.10;87.00;;;;;;5010639;29;20130;-74
2021/09/19 06:44:14;;;;;;;10.68;9.88;;;11.20;87.00;;;;;;5010020;29;20108;-73
2021/09/19 06:46:46;;;;;;;11.55;10.65;;;11.40;86.30;;;;;;5009707;29;20042;-75
2021/09/19 06:49:18;;;;;;;12.38;11.27;;;11.50;86.10;;;;;;4995421;29;20065;-75
2021/09/19 06:51:50;;;;;;;11.38;10.48;;;11.70;85.60;;;;;;5011180;29;20090;-75
2021/09/19 06:54:22;;;;;;;11.40;10.40;;;11.80;85.30;;;;;;5008439;29;20159;-73
2021/09/19 06:56:54;;;;;;;12.23;11.23;;;11.90;85.30;;;;;;5007840;29;20516;-76
2021/09/19 06:59:26;;;;;;;12.63;11.63;;;12.00;84.80;;;;;;5011554;29;20050;-75
2021/09/19 07:01:58;;;;;;;12.13;11.23;;;12.20;85.00;;;;;;5008661;29;20103;-75
2021/09/19 07:04:30;;;;;;;12.40;11.38;;;12.40;84.40;;;;;;5008160;29;20069;-75
2021/09/19 07:07:02;;;;;;;12.68;11.65;;;12.50;84.10;;;;;;5009528;29;20254;-75
2021/09/19 07:09:34;;;;;;;12.85;11.85;;;12.70;84.30;;;;;;5009473;29;20045;-75
2021/09/19 07:12:06;;;;;;;12.70;11.68;;;12.80;83.50;;;;;;4991911;29;20124;-74
2021/09/19 07:14:38;;;;;;;12.27;11.38;;;12.90;84.00;;;;;;5009043;29;20049;-75
2021/09/19 07:17:10;;;;;;;13.50;12.35;;;13.10;84.00;;;;;;5010593;29;20169;-73
2021/09/19 07:19:42;;;;;;;13.45;12.35;;;13.20;83.50;;;;;;4993291;29;20069;-74
2021/09/19 07:22:14;;;;;;;14.02;12.95;;;13.30;83.50;;;;;;5008132;29;20064;-74
2021/09/19 07:24:46;;;;;;;13.65;12.35;;;13.40;83.20;;;;;;5011178;29;20128;-74
2021/09/19 07:27:18;;;;;;;13.43;12.43;;;13.50;82.90;;;;;;5008533;29;20186;-75
2021/09/19 07:29:51;;;;;;;13.75;12.65;;;13.60;82.80;;;;;;4999370;29;20152;-74
2021/09/19 07:32:23;;;;;;;14.23;13.00;;;13.70;83.20;;;;;;5007347;29;20556;-74
2021/09/19 07:34:55;;;;;;;14.18;13.07;;;13.80;82.80;;;;;;5011047;29;20073;-74
2021/09/19 07:37:28;;;;;;;13.50;12.50;;;13.90;82.90;;;;;;5009843;29;20049;-74
2021/09/19 07:40:00;;;;;;;14.20;13.10;;;14.00;83.00;;;;;;4992074;29;20101;-75
2021/09/19 07:42:33;;;;;;;14.75;13.55;;;14.10;82.70;;;;;;4999104;29;20062;-75
2021/09/19 07:45:06;;;;;;;15.35;14.15;;;14.20;81.90;;;;;;4995191;29;20060;-74
2021/09/19 07:47:38;;;;;;;14.82;13.73;;;14.30;81.70;;;;;;5006696;29;20068;-74
2021/09/19 07:50:12;;;;;;;14.80;13.70;;;14.40;81.50;;;;;;5011502;29;20534;-74
2021/09/19 07:52:44;;;;;;;15.85;14.45;;;14.50;81.00;;;;;;4996279;29;20107;-73
2021/09/19 07:55:16;;;;;;;16.50;15.20;;;14.60;80.80;;;;;;5014202;29;20081;-73
2021/09/19 07:57:48;;;;;;;15.52;14.32;;;14.70;81.20;;;;;;4994886;29;20117;-73
2021/09/19 08:00:20;;;;;;;15.65;14.35;;;14.80;81.10;;;;;;5013349;29;20052;-73
2021/09/19 08:02:54;;;;;;;16.52;14.93;;;14.90;80.40;;;;;;5014036;29;20125;-73
2021/09/19 08:05:26;;;;;;;16.80;15.50;;;15.00;80.50;;;;;;5012181;29;20053;-73
2021/09/19 08:07:58;;;;;;;15.48;14.27;;;15.00;80.30;;;;;;5014029;29;20050;-74
2021/09/19 08:10:30;;;;;;;15.63;14.43;;;15.00;80.60;;;;;;5013738;29;20050;-73
2021/09/19 08:13:02;;;;;;;16.20;15.00;;;15.10;80.60;;;;;;5013286;29;20128;-73
2021/09/19 08:15:34;;;;;;;16.05;14.85;;;15.20;80.40;;;;;;5013145;29;20132;-74
2021/09/19 08:18:06;;;;;;;15.48;14.30;;;15.20;80.20;;;;;;5011496;29;20052;-75
2021/09/19 08:20:38;;;;;;;16.30;15.10;;;15.30;80.40;;;;;;4995310;29;20047;-73
2021/09/19 08:23:11;;;;;;;15.90;14.70;;;15.40;81.00;;;;;;5011731;29;20141;-73
2021/09/19 08:25:43;;;;;;;16.23;15.02;;;15.50;79.90;;;;;;5011768;29;20080;-72
2021/09/19 08:28:15;;;;;;;16.70;15.38;;;15.50;79.40;;;;;;5012937;29;20128;-73
2021/09/19 08:30:47;;;;;;;16.13;14.93;;;15.60;80.50;;;;;;4995190;29;20050;-74
2021/09/19 08:33:23;;;;;;;16.45;15.25;;;15.70;80.00;;;;;;5011058;29;20050;-74
2021/09/19 08:35:56;;;;;;;16.27;15.07;;;15.80;79.40;;;;;;5012566;29;20132;-74
2021/09/19 08:38:28;;;;;;;16.30;15.10;;;15.90;80.00;;;;;;4997141;29;20277;-75
2021/09/19 08:41:00;;;;;;;15.52;14.43;;;16.00;79.60;;;;;;5012553;29;20256;-75
2021/09/19 08:43:32;;;;;;;14.80;13.70;;;15.90;79.50;;;;;;5012492;29;20045;-74
2021/09/19 08:46:04;;;;;;;14.95;13.85;;;15.90;79.50;;;;;;5013411;29;20396;-74
2021/09/19 08:48:38;;;;;;;16.20;14.80;;;15.70;80.00;;;;;;5009673;29;20061;-73
2021/09/19 08:51:11;;;;;;;15.40;14.20;;;15.70;80.90;;;;;;5014387;29;20065;-75
2021/09/19 08:53:43;;;;;;;15.30;14.20;;;15.70;81.30;;;;;;4994991;29;20053;-75
2021/09/19 08:56:22;;;;;;;15.57;14.48;;;15.70;82.10;;;;;;5009654;29;20081;-74
2021/09/19 08:58:55;;;;;;;15.93;14.63;;;15.70;81.30;;;;;;5012397;29;20436;-73
2021/09/19 09:01:27;;;;;;;14.80;13.70;;;15.70;81.60;;;;;;5008973;29;20132;-74
2021/09/19 09:04:06;;;;;;;16.02;14.73;;;15.60;81.70;;;;;;5012770;29;20156;-74
2021/09/19 09:06:38;;;;;;;15.40;14.20;;;15.70;82.10;;;;;;5011064;29;20719;-74
2021/09/19 09:09:16;;;;;;;15.23;14.13;;;15.70;82.10;;;;;;5011000;29;20268;-74
2021/09/19 09:12:09;;;;;;;14.52;13.35;;;15.70;82.90;;;;;;5009988;29;20540;-74
2021/09/19 09:14:51;;;;;;;14.80;13.70;;;15.80;81.60;;;;;;5010492;29;20152;-74
2021/09/19 09:17:26;;;;;;;14.77;13.68;;;15.70;81.40;;;;;;5012880;29;20128;-74
2021/09/19 09:20:02;;;;;;;14.20;13.20;;;15.80;81.50;;;;;;5012685;29;20117;-74
2021/09/19 09:22:36;;;;;;;14.73;13.60;;;15.90;80.70;;;;;;5011331;29;20046;-75
2021/09/19 09:25:12;;;;;;;15.05;13.85;;;15.80;81.10;;;;;;5009995;29;20129;-74
2021/09/19 09:27:50;;;;;;;15.38;14.27;;;15.80;80.20;;;;;;5012155;29;20520;-76
2021/09/19 09:30:25;;;;;;;15.02;13.90;;;15.90;82.00;;;;;;5009213;29;20169;-75
2021/09/19 09:33:04;;;;;;;15.20;14.10;;;16.00;81.80;;;;;;5009095;29;20042;-75
2021/09/19 09:35:40;;;;;;;14.90;13.80;;;16.10;81.30;;;;;;5011853;29;20073;-76
2021/09/19 09:38:20;;;;;;;15.77;14.50;;;16.00;82.10;;;;;;5010805;29;20053;-75
2021/09/19 09:40:57;;;;;;;15.70;14.00;;;16.20;83.50;;;;;;5010872;29;20054;-76
2021/09/19 09:43:30;;;;;;;14.93;13.82;;;16.20;80.80;;;;;;5011987;29;20121;-76
2021/09/19 09:46:10;;;;;;;15.05;13.93;;;16.20;82.00;;;;;;5008730;29;20113;-75
2021/09/19 09:48:44;;;;;;;14.05;13.05;;;16.20;82.20;;;;;;5001007;29;20110;-76
2021/09/19 09:51:23;;;;;;;14.90;13.80;;;16.20;82.50;;;;;;5011601;29;20102;-75
2021/09/19 09:54:00;;;;;;;15.10;13.90;;;16.30;82.80;;;;;;4993889;29;20535;-76
2021/09/19 09:56:33;;;;;;;15.68;14.38;;;16.20;81.20;;;;;;5010448;29;20819;-73
2021/09/19 09:59:05;;;;;;;16.05;14.75;;;16.20;80.60;;;;;;5011922;29;20049;-73
2021/09/19 10:01:40;;;;;;;16.27;14.90;;;16.10;80.20;;;;;;5010615;29;20041;-74
2021/09/19 10:04:15;;;;;;;17.02;15.70;;;16.00;79.90;;;;;;5012668;29;20053;-73
2021/09/19 10:06:47;;;;;;;17.08;15.77;;;15.90;79.70;;;;;;5009310;29;20666;-72
2021/09/19 10:09:19;;;;;;;17.55;16.17;;;15.90;79.80;;;;;;5010790;29;20065;-74
2021/09/19 10:11:51;;;;;;;17.10;15.68;;;15.80;81.00;;;;;;5009864;29;20058;-73
2021/09/19 10:14:23;;;;;;;16.70;15.40;;;15.80;79.80;;;;;;4995686;29;20634;-72
2021/09/19 10:16:55;;;;;;;17.77;16.38;;;15.70;80.10;;;;;;5009286;29;20492;-73
2021/09/19 10:19:27;;;;;;;16.88;15.38;;;15.70;80.20;;;;;;5011289;29;20054;-72
2021/09/19 10:22:00;;;;;;;17.50;16.00;;;15.60;80.60;;;;;;5010168;29;20868;-73
2021/09/19 10:24:36;;;;;;;17.85;16.35;;;15.60;79.40;;;;;;5011417;29;20133;-73
2021/09/19 10:27:23;;;;;;;17.45;15.95;;;15.50;80.10;;;;;;5008970;29;20057;-73
2021/09/19 10:29:58;;;;;;;16.85;15.43;;;15.50;79.10;;;;;;5009683;29;20075;-72
2021/09/19 10:32:43;;;;;;;17.70;16.30;;;15.50;79.30;;;;;;5009026;29;20152;-72
2021/09/19 10:35:15;;;;;;;18.00;16.50;;;15.30;79.10;;;;;;5009381;29;20053;-72
2021/09/19 10:37:50;;;;;;;18.30;16.70;;;15.30;78.30;;;;;;5008256;29;20053;-72
2021/09/19 10:40:34;;;;;;;17.88;16.38;;;15.20;79.20;;;;;;5014805;29;20053;-73
2021/09/19 10:43:16;;;;;;;17.45;16.05;;;15.20;79.20;;;;;;4993425;29;20049;-73
2021/09/19 10:45:52;;;;;;;18.20;16.70;;;15.20;78.40;;;;;;5009208;29;20532;-73
2021/09/19 10:48:34;;;;;;;18.25;16.85;;;15.20;77.80;;;;;;5008895;29;20070;-72
2021/09/19 10:51:08;;;;;;;17.52;16.13;;;15.10;79.60;;;;;;5012095;29;20049;-72
2021/09/19 10:53:47;;;;;;;17.23;15.82;;;15.20;79.40;;;;;;5012633;29;20133;-72
2021/09/19 10:56:23;;;;;;;16.17;14.88;;;15.20;78.80;;;;;;5008828;29;20049;-72
2021/09/19 10:58:55;;;;;;;17.52;16.13;;;15.10;78.60;;;;;;5011716;29;20056;-73
2021/09/19 11:01:35;;;;;;;16.92;15.52;;;15.20;79.70;;;;;;5012018;29;20073;-71
2021/09/19 11:04:10;;;;;;;16.92;15.57;;;15.20;78.50;;;;;;5008929;29;20045;-72
2021/09/19 11:06:42;;;;;;;16.67;15.35;;;15.20;78.40;;;;;;5009577;29;20049;-73
2021/09/19 11:09:35;;;;;;;17.15;15.75;;;15.10;77.70;;;;;;5009355;29;20053;-71
2021/09/19 11:12:17;;;;;;;17.33;15.90;;;15.00;78.30;;;;;;5009142;29;20058;-73
2021/09/19 11:15:02;;;;;;;16.63;15.23;;;15.00;80.10;;;;;;5007949;29;20105;-72
2021/09/19 11:17:44;;;;;;;16.73;15.30;;;15.00;78.50;;;;;;5011044;29;20073;-72
2021/09/19 11:20:22;;;;;;;15.98;14.57;;;15.00;78.70;;;;;;5010986;29;20161;-72
2021/09/19 11:23:16;;;;;;;16.05;14.85;;;14.90;79.90;;;;;;5010199;29;20128;-72
2021/09/19 11:25:49;;;;;;;16.25;14.85;;;14.90;80.20;;;;;;5007522;29;20054;-73
2021/09/19 11:28:22;;;;;;;15.32;14.13;;;14.90;79.80;;;;;;5009991;29;20415;-73
2021/09/19 11:30:57;;;;;;;15.75;14.50;;;14.80;79.80;;;;;;5010172;29;20041;-73
2021/09/19 11:33:33;;;;;;;15.75;14.38;;;14.80;80.00;;;;;;5008168;29;20718;-73
2021/09/19 11:36:11;;;;;;;15.90;14.70;;;14.70;79.80;;;;;;5007066;29;20085;-72
2021/09/19 11:38:49;;;;;;;16.13;14.68;;;14.70;80.30;;;;;;5011016;29;20072;-74
2021/09/19 11:41:22;;;;;;;15.60;14.40;;;14.80;80.40;;;;;;5008806;29;20046;-74
2021/09/19 11:43:56;;;;;;;15.00;13.90;;;14.70;80.50;;;;;;5008707;29;20068;-73
2021/09/19 11:46:29;;;;;;;15.23;14.02;;;14.70;80.90;;;;;;5014181;29;20054;-74
2021/09/19 11:49:03;;;;;;;15.20;14.00;;;14.70;81.10;;;;;;5009494;29;20049;-75
2021/09/19 11:51:37;;;;;;;15.55;14.35;;;14.60;81.00;;;;;;5008216;29;20057;-73
2021/09/19 11:54:17;;;;;;;15.65;14.32;;;14.70;81.00;;;;;;5010281;29;20096;-74
2021/09/19 11:56:50;;;;;;;;;;;14.70;81.00;;;;;;5007667;29;20051;-73
2021/09/19 11:59:21;;;;;;;15.40;14.20;;;14.70;80.60;;;;;;5006278;29;20911;-73
2021/09/19 12:01:57;;;;;;;15.90;14.70;;;14.70;81.60;;;;;;5007300;29;20049;-74
2021/09/19 12:04:30;;;;;;;14.98;13.88;;;14.60;80.40;;;;;;5007952;29;20504;-74
2021/09/19 12:07:02;;;;;;;15.65;14.45;;;14.60;81.40;;;;;;5010650;29;20151;-75
2021/09/19 12:09:34;;;;;;;15.48;14.27;;;14.60;81.00;;;;;;4986270;29;20057;-74
2021/09/19 12:12:12;;;;;;;15.25;14.05;;;14.60;80.90;;;;;;5011049;29;20076;-75
2021/09/19 12:14:52;;;;;;;14.65;13.52;;;14.60;81.10;;;;;;5009550;29;20130;-76
2021/09/19 12:17:25;;;;;;;;;;;14.60;80.80;;;;;;5009984;29;20053;-75
2021/09/19 12:20:07;;;;;;;14.45;13.35;;;14.60;81.20;;;;;;5010147;29;19987;-76
2021/09/19 12:22:39;;;;;;;14.65;13.55;;;14.60;81.60;;;;;;5010722;29;20110;-76
2021/09/19 12:25:13;;;;;;;16.00;14.90;;;14.60;81.40;;;;;;5007650;29;20053;-76
2021/09/19 12:27:47;;;;;;;13.95;12.95;;;14.60;81.60;;;;;;5006891;29;20497;-75
2021/09/19 12:30:20;;;;;;;13.70;12.70;;;14.60;81.70;;;;;;5008152;29;20049;-76
2021/09/19 12:32:55;;;;;;;14.65;13.55;;;14.60;81.50;;;;;;5008912;29;20491;-75
2021/09/19 12:35:30;;;;;;;13.82;12.82;;;14.60;81.60;;;;;;4990437;29;20068;-75
2021/09/19 12:38:04;;;;;;;13.43;12.43;;;14.60;81.80;;;;;;4994252;29;20044;-75
2021/09/19 12:40:36;;;;;;;13.38;12.38;;;14.60;81.50;;;;;;5011942;29;20049;-76
2021/09/19 12:43:11;;;;;;;12.90;12.00;;;14.50;81.80;;;;;;5012698;29;20102;-75
2021/09/19 12:45:49;;;;;;;12.82;11.93;;;14.50;81.50;;;;;;5010207;29;20046;-74
2021/09/19 12:48:26;;;;;;;13.00;12.00;;;14.50;81.30;;;;;;5013596;29;20124;-75
2021/09/19 12:51:01;;;;;;;13.10;12.20;;;14.50;81.60;;;;;;5011895;29;20411;-76
2021/09/19 12:53:35;;;;;;;13.20;12.20;;;14.40;81.10;;;;;;5012511;29;20151;-75
2021/09/19 12:56:07;;;;;;;12.82;11.93;;;14.40;81.40;;;;;;5010603;29;20441;-76
2021/09/19 12:58:39;;;;;;;12.70;11.80;;;14.30;80.40;;;;;;5012808;29;20070;-76
2021/09/19 13:01:13;;;;;;;13.18;12.18;;;14.30;80.80;;;;;;5011668;29;20052;-75